Time;durP1;ratioP1;P1;durP2;ratioP2;P2;SDS_P1;SDS_P2;PMS_P1;PMS_P2;Temp;Humidity;BMP_temperature;BMP_pressure;BME280_temperature;BME280_humidity;BME280_pressure;Samples;Min_cycle;Max_cycle;Signal;HPM_P1;HPM_P2
2022/07/21 00:01:25;;;;;;;;;;;;;;;20.53;48.66;99428.22;4998810;28;19952;-93
2022/07/21 00:03:51;;;;;;;;;;;;;;;20.45;48.23;99425.56;4982007;28;19920;-92
2022/07/21 00:06:16;;;;;;;;;;;;;;;20.42;48.87;99432.50;4981672;28;19967;-92
2022/07/21 00:08:41;;;;;;;;;;;;;;;20.44;48.29;99427.50;4981675;28;19940;-92
2022/07/21 00:11:07;;;;;;;;;;;;;;;20.32;48.89;99425.47;4982027;28;19921;-92
2022/07/21 00:13:32;;;;;;;;;;;;;;;20.35;48.92;99426.75;4970144;28;19914;-92
2022/07/21 00:15:57;;;;;;;;;;;;;;;20.27;49.14;99424.88;4959147;28;19918;-92
2022/07/21 00:18:23;;;;;;;;;;;;;;;20.23;48.69;99432.94;4961505;28;19968;-92
2022/07/21 00:20:49;;;;;;;;;;;;;;;20.22;49.07;99428.59;4962093;28;19924;-93
2022/07/21 00:23:14;;;;;;;;;;;;;;;20.21;49.32;99431.66;4989923;28;19990;-92
2022/07/21 00:25:39;;;;;;;;;;;;;;;20.25;49.06;99429.88;4962080;28;19977;-92
2022/07/21 00:28:05;;;;;;;;;;;;;;;20.15;50.12;99426.41;4956800;28;19958;-93
2022/07/21 00:30:30;;;;;;;;;;;;;;;20.14;49.86;99423.97;4959240;28;19914;-92
2022/07/21 00:32:55;;;;;;;;;;;;;;;20.06;49.98;99433.84;4964065;28;19920;-92
2022/07/21 00:35:21;;;;;;;;;;;;;;;20.07;50.17;99429.97;4961820;28;19920;-93
2022/07/21 00:37:49;;;;;;;;;;;;;;;19.98;50.21;99424.56;4959442;28;19973;-93
2022/07/21 00:40:15;;;;;;;;;;;;;;;19.94;50.50;99420.06;4963178;28;19953;-93
2022/07/21 00:42:40;;;;;;;;;;;;;;;19.92;50.33;99416.88;4959074;28;20007;-92
2022/07/21 00:45:06;;;;;;;;;;;;;;;19.87;51.04;99417.88;4961781;28;19920;-92
2022/07/21 00:47:31;;;;;;;;;;;;;;;19.89;50.77;99414.81;4975973;28;19918;-93
2022/07/21 00:49:57;;;;;;;;;;;;;;;19.85;50.82;99416.59;4961033;28;19968;-93
2022/07/21 00:52:22;;;;;;;;;;;;;;;19.79;50.91;99416.75;4962435;28;19914;-93
2022/07/21 00:54:47;;;;;;;;;;;;;;;19.72;50.91;99413.75;4979032;28;19913;-92
2022/07/21 00:57:13;;;;;;;;;;;;;;;19.70;51.13;99402.34;4961962;28;20013;-92
2022/07/21 00:59:38;;;;;;;;;;;;;;;19.61;51.55;99409.78;4949457;28;19925;-93
2022/07/21 01:02:04;;;;;;;;;;;;;;;19.61;51.79;99400.75;4942645;28;19996;-92
2022/07/21 01:04:29;;;;;;;;;;;;;;;19.62;51.19;99407.84;4958835;28;19921;-93
2022/07/21 01:06:54;;;;;;;;;;;;;;;19.53;51.87;99391.50;4974186;28;19918;-93
2022/07/21 01:09:20;;;;;;;;;;;;;;;19.51;52.22;99404.66;4979986;28;19918;-93
2022/07/21 01:11:45;;;;;;;;;;;;;;;19.39;52.52;99397.94;4975128;28;19968;-92
2022/07/21 01:14:11;;;;;;;;;;;;;;;19.32;52.91;99403.13;4958627;28;19914;-92
2022/07/21 01:16:36;;;;;;;;;;;;;;;19.36;52.97;99403.25;4958109;28;19915;-93
2022/07/21 01:19:01;;;;;;;;;;;;;;;19.31;52.56;99392.53;4965976;28;19914;-93
2022/07/21 01:21:28;;;;;;;;;;;;;;;19.28;52.35;99395.88;4961833;28;19945;-92
2022/07/21 01:23:53;;;;;;;;;;;;;;;19.26;52.54;99398.97;4950519;28;19922;-93
2022/07/21 01:26:18;;;;;;;;;;;;;;;19.22;52.97;99398.00;4942499;28;20381;-93
2022/07/21 01:28:44;;;;;;;;;;;;;;;19.22;52.89;99399.94;4942120;28;19945;-93
2022/07/21 01:31:09;;;;;;;;;;;;;;;19.26;52.55;99401.69;4942466;28;19949;-93
2022/07/21 01:33:34;;;;;;;;;;;;;;;19.28;53.07;99390.44;4950145;28;19924;-93
2022/07/21 01:36:00;;;;;;;;;;;;;;;19.30;52.84;99390.91;4961320;28;20418;-93
2022/07/21 01:43:53;;;;;;;;;;;;;;;19.23;53.05;99388.69;4971835;28;19921;-94
2022/07/21 01:46:18;;;;;;;;;;;;;;;19.21;53.28;99392.88;4954577;28;19914;-93
2022/07/21 01:48:43;;;;;;;;;;;;;;;19.23;52.97;99390.63;4964318;28;19980;-93
2022/07/21 01:51:09;;;;;;;;;;;;;;;19.25;52.96;99394.63;4952700;29;19922;-93
2022/07/21 01:53:34;;;;;;;;;;;;;;;19.20;52.57;99389.34;4950101;28;19918;-94
2022/07/21 01:55:59;;;;;;;;;;;;;;;19.29;51.69;99384.66;4957386;29;19915;-93
2022/07/21 01:58:25;;;;;;;;;;;;;;;19.21;53.25;99390.94;4949736;28;19965;-93
2022/07/21 02:00:50;;;;;;;;;;;;;;;19.16;52.83;99383.72;4961651;28;19922;-92
2022/07/21 02:03:15;;;;;;;;;;;;;;;19.15;53.00;99384.88;4945369;28;19921;-93
2022/07/21 02:05:40;;;;;;;;;;;;;;;19.12;53.00;99384.72;4945251;28;19914;-93
2022/07/21 02:08:06;;;;;;;;;;;;;;;19.07;53.60;99382.13;4950023;28;19918;-93
2022/07/21 02:10:31;;;;;;;;;;;;;;;19.09;53.51;99383.44;4961406;28;19929;-93
2022/07/21 02:12:56;;;;;;;;;;;;;;;19.02;53.55;99374.94;4945219;28;20052;-92
2022/07/21 02:15:22;;;;;;;;;;;;;;;19.00;53.84;99376.38;4946141;28;19914;-93
2022/07/21 02:17:47;;;;;;;;;;;;;;;18.94;53.63;99382.00;4954348;28;19953;-92
2022/07/21 02:20:12;;;;;;;;;;;;;;;18.94;53.89;99383.94;4964342;28;19914;-92
2022/07/21 02:22:37;;;;;;;;;;;;;;;18.90;54.03;99381.03;4954445;28;19914;-93
2022/07/21 02:25:03;;;;;;;;;;;;;;;18.86;54.05;99371.91;4962518;28;19914;-93
2022/07/21 02:27:28;;;;;;;;;;;;;;;18.82;54.56;99376.41;4959100;28;20403;-92
2022/07/21 02:29:53;;;;;;;;;;;;;;;18.77;54.66;99379.28;4961054;28;19918;-94
2022/07/21 02:32:19;;;;;;;;;;;;;;;18.73;54.31;99373.66;4972646;28;20370;-93
2022/07/21 02:34:45;;;;;;;;;;;;;;;18.75;54.14;99370.63;4984240;28;19918;-94
2022/07/21 02:37:10;;;;;;;;;;;;;;;18.65;53.97;99370.94;4983771;28;20000;-93
2022/07/21 02:39:36;;;;;;;;;;;;;;;18.62;54.68;99374.34;4963904;28;20376;-93
2022/07/21 02:42:01;;;;;;;;;;;;;;;18.53;54.86;99377.03;4964037;28;20045;-93
2022/07/21 02:44:26;;;;;;;;;;;;;;;18.56;54.78;99369.03;4961565;28;20507;-93
2022/07/21 02:46:51;;;;;;;;;;;;;;;18.56;55.02;99374.47;4963966;28;19914;-92
2022/07/21 02:49:17;;;;;;;;;;;;;;;18.52;55.31;99376.25;4974685;28;20319;-92
2022/07/21 02:51:42;;;;;;;;;;;;;;;18.50;54.99;99380.44;4983805;28;19913;-93
2022/07/21 02:54:07;;;;;;;;;;;;;;;18.49;55.18;99378.81;4957954;28;20372;-92
2022/07/21 02:56:33;;;;;;;;;;;;;;;18.39;55.34;99374.50;4944564;28;19980;-93
2022/07/21 02:58:58;;;;;;;;;;;;;;;18.35;55.47;99376.25;4959751;28;20004;-93
2022/07/21 03:01:23;;;;;;;;;;;;;;;18.29;55.51;99381.06;4980084;28;20375;-92
2022/07/21 03:03:49;;;;;;;;;;;;;;;18.29;55.99;99369.38;4962907;28;19920;-91
2022/07/21 03:06:14;;;;;;;;;;;;;;;18.24;56.18;99375.78;4979997;28;19917;-93
2022/07/21 03:08:39;;;;;;;;;;;;;;;18.23;56.11;99373.38;4951184;28;20002;-93
2022/07/21 03:11:05;;;;;;;;;;;;;;;18.21;56.09;99373.69;4944475;28;19914;-93
2022/07/21 03:13:30;;;;;;;;;;;;;;;18.16;56.54;99369.19;4955177;28;20356;-92
2022/07/21 03:15:55;;;;;;;;;;;;;;;18.13;56.73;99380.72;4960167;28;20420;-92
2022/07/21 03:18:20;;;;;;;;;;;;;;;18.08;56.96;99371.91;4956822;28;19984;-91
2022/07/21 03:20:46;;;;;;;;;;;;;;;18.14;56.76;99376.09;4943798;28;19921;-91
2022/07/21 03:23:11;;;;;;;;;;;;;;;18.10;56.48;99378.63;4944082;28;20384;-91
2022/07/21 03:25:36;;;;;;;;;;;;;;;18.08;56.69;99380.09;4960181;28;20292;-92
2022/07/21 03:28:02;;;;;;;;;;;;;;;18.19;56.80;99381.38;4947356;28;19922;-91
2022/07/21 03:30:28;;;;;;;;;;;;;;;18.24;56.26;99377.69;4963230;28;19921;-91
2022/07/21 03:32:54;;;;;;;;;;;;;;;18.11;56.86;99376.72;4976232;28;19914;-90
2022/07/21 03:35:19;;;;;;;;;;;;;;;18.01;57.41;99383.25;4943672;28;20439;-90
2022/07/21 03:37:45;;;;;;;;;;;;;;;17.95;57.55;99384.53;4947004;28;19922;-92
2022/07/21 03:40:11;;;;;;;;;;;;;;;17.92;58.01;99391.41;4982254;28;19968;-90
2022/07/21 03:42:36;;;;;;;;;;;;;;;17.85;58.16;99387.56;4981714;28;19914;-91
2022/07/21 03:45:02;;;;;;;;;;;;;;;17.75;58.09;99386.69;4971601;28;20403;-90
2022/07/21 03:47:27;;;;;;;;;;;;;;;17.73;58.66;99388.13;4967747;28;19914;-93
2022/07/21 03:49:53;;;;;;;;;;;;;;;17.78;58.63;99390.69;4960970;28;20304;-92
2022/07/21 03:52:20;;;;;;;;;;;;;;;17.74;58.98;99390.56;4943924;28;19921;-93
2022/07/21 03:54:46;;;;;;;;;;;;;;;17.86;58.26;99395.41;4943855;28;19939;-93
2022/07/21 03:57:11;;;;;;;;;;;;;;;17.94;58.03;99394.63;4960290;28;19914;-92
2022/07/21 03:59:36;;;;;;;;;;;;;;;17.95;58.44;99392.69;4977707;28;19929;-92
2022/07/21 04:02:02;;;;;;;;;;;;;;;17.98;57.67;99387.41;4943829;28;20371;-91
2022/07/21 04:04:27;;;;;;;;;;;;;;;18.06;57.86;99396.75;4959948;28;20381;-94
2022/07/21 04:06:52;;;;;;;;;;;;;;;18.10;57.34;99392.25;4960980;28;19921;-93
2022/07/21 04:09:18;;;;;;;;;;;;;;;18.13;57.15;99394.34;4943953;28;19925;-93
2022/07/21 04:11:44;;;;;;;;;;;;;;;18.17;57.45;99397.22;4959997;28;19938;-93
2022/07/21 04:14:09;;;;;;;;;;;;;;;18.23;57.51;99397.91;4959704;28;20443;-93
2022/07/21 04:16:34;;;;;;;;;;;;;;;18.31;57.62;99394.38;4943946;28;19918;-93
2022/07/21 04:18:59;;;;;;;;;;;;;;;18.31;58.12;99399.81;4960361;28;20012;-94
2022/07/21 04:21:27;;;;;;;;;;;;;;;18.31;58.32;99394.38;4995486;28;21687;-95
2022/07/21 04:23:52;;;;;;;;;;;;;;;18.33;57.93;99398.38;4979502;28;19945;-93
2022/07/21 04:26:17;;;;;;;;;;;;;;;18.35;58.58;99395.34;4980485;28;19913;-93
2022/07/21 04:28:43;;;;;;;;;;;;;;;18.48;57.49;99401.75;4978927;28;19928;-93
2022/07/21 04:31:08;;;;;;;;;;;;;;;18.53;56.60;99399.69;4996628;28;19960;-93
2022/07/21 04:33:35;;;;;;;;;;;;;;;18.60;56.10;99399.19;4962630;28;19922;-92
2022/07/21 04:36:00;;;;;;;;;;;;;;;18.77;55.98;99401.09;4963796;28;19897;-94
2022/07/21 04:38:25;;;;;;;;;;;;;;;18.89;54.23;99395.81;4962895;28;19915;-95
2022/07/21 04:40:51;;;;;;;;;;;;;;;19.01;54.77;99392.44;4962187;28;19914;-94
2022/07/21 04:43:16;;;;;;;;;;;;;;;19.12;54.25;99393.69;4963598;28;19921;-94
2022/07/21 04:45:41;;;;;;;;;;;;;;;19.29;54.57;99390.09;4963430;28;19920;-94
2022/07/21 04:48:06;;;;;;;;;;;;;;;19.36;53.72;99392.34;4962978;28;19972;-95
2022/07/21 04:50:32;;;;;;;;;;;;;;;19.43;53.50;99392.66;4980092;28;20332;-94
2022/07/21 04:52:58;;;;;;;;;;;;;;;19.64;52.88;99394.66;4978677;28;19914;-90
2022/07/21 04:55:24;;;;;;;;;;;;;;;19.80;52.48;99403.94;4961775;28;19914;-90
2022/07/21 04:57:49;;;;;;;;;;;;;;;19.79;52.17;99405.03;4961647;28;19921;-89
2022/07/21 05:00:15;;;;;;;;;;;;;;;19.83;52.26;99403.25;4944112;28;19925;-91
2022/07/21 05:02:41;;;;;;;;;;;;;;;19.96;51.02;99395.94;4978557;28;20323;-92
2022/07/21 05:05:06;;;;;;;;;;;;;;;20.14;51.10;99402.91;4994255;28;19914;-91
2022/07/21 05:07:32;;;;;;;;;;;;;;;20.26;50.96;99410.41;4961799;28;19914;-92
2022/07/21 05:09:58;;;;;;;;;;;;;;;20.45;50.03;99412.66;4994527;28;20367;-91
2022/07/21 05:12:24;;;;;;;;;;;;;;;20.63;49.46;99418.84;4996521;28;19964;-90
2022/07/21 05:14:49;;;;;;;;;;;;;;;20.64;49.51;99423.16;4961753;28;19914;-91
2022/07/21 05:17:15;;;;;;;;;;;;;;;20.67;48.93;99411.56;4977895;28;19913;-91
2022/07/21 05:19:42;;;;;;;;;;;;;;;20.79;48.17;99417.09;4963595;28;19920;-91
2022/07/21 05:22:10;;;;;;;;;;;;;;;20.78;48.86;99412.75;4957600;28;19914;-91
2022/07/21 05:24:35;;;;;;;;;;;;;;;20.92;47.66;99417.94;4968521;28;19918;-93
2022/07/21 05:27:01;;;;;;;;;;;;;;;21.03;47.77;99426.53;4961536;28;19913;-93
2022/07/21 05:29:28;;;;;;;;;;;;;;;21.14;47.33;99415.94;4977946;28;19940;-92
2022/07/21 05:31:54;;;;;;;;;;;;;;;21.31;47.66;99421.25;4978669;28;19981;-92
2022/07/21 05:34:19;;;;;;;;;;;;;;;21.48;47.52;99422.22;4960231;28;19921;-92
2022/07/21 05:36:59;;;;;;;;;;;;;;;21.64;47.23;99408.66;4944666;28;20063;-93
2022/07/21 05:39:25;;;;;;;;;;;;;;;21.75;47.54;99413.34;4947360;28;19918;-92
2022/07/21 05:41:59;;;;;;;;;;;;;;;21.84;45.97;99429.69;4971605;28;19924;-93
2022/07/21 05:44:28;;;;;;;;;;;;;;;21.96;45.58;99424.19;4970577;28;19922;-92
2022/07/21 05:46:53;;;;;;;;;;;;;;;22.06;45.98;99425.69;4955573;28;19920;-93
2022/07/21 05:49:19;;;;;;;;;;;;;;;22.21;45.47;99432.41;4961384;28;20312;-94
2022/07/21 05:51:45;;;;;;;;;;;;;;;22.31;45.88;99431.16;4978143;28;19921;-93
2022/07/21 05:54:11;;;;;;;;;;;;;;;22.39;45.43;99446.66;4950532;28;19914;-89
2022/07/21 05:56:36;;;;;;;;;;;;;;;22.47;45.32;99445.75;4969942;28;20303;-89
2022/07/21 05:59:22;;;;;;;;;;;;;;;22.62;45.04;99440.69;4947108;28;19914;-91
2022/07/21 06:01:57;;;;;;;;;;;;;;;22.76;44.75;99444.63;4961098;28;19921;-92
2022/07/21 06:04:41;;;;;;;;;;;;;;;22.83;43.74;99440.50;4971687;28;20073;-92
2022/07/21 06:07:07;;;;;;;;;;;;;;;22.97;44.13;99438.16;4928526;29;19919;-93
2022/07/21 06:09:32;;;;;;;;;;;;;;;23.00;44.43;99437.47;4915176;29;19919;-93
2022/07/21 06:11:58;;;;;;;;;;;;;;;23.11;43.74;99441.31;4926325;29;19923;-92
2022/07/21 06:14:26;;;;;;;;;;;;;;;23.27;43.29;99435.88;4909729;29;19915;-95
2022/07/21 06:16:54;;;;;;;;;;;;;;;23.42;42.19;99441.75;4922759;29;19915;-95
2022/07/21 06:19:19;;;;;;;;;;;;;;;23.56;42.17;99437.41;4924009;29;19958;-95
2022/07/21 06:21:44;;;;;;;;;;;;;;;23.72;43.10;99434.66;4893340;29;19919;-94
2022/07/21 06:27:08;;;;;;;;;;;;;;;23.97;40.85;99429.00;4924119;29;20384;-96
2022/07/21 06:29:33;;;;;;;;;;;;;;;24.10;41.40;99435.19;4905391;29;20039;-95
2022/07/21 06:32:01;;;;;;;;;;;;;;;24.23;40.84;99430.34;4901235;29;19915;-96
2022/07/21 06:34:26;;;;;;;;;;;;;;;24.30;40.59;99425.81;4919495;29;19962;-95
2022/07/21 06:36:51;;;;;;;;;;;;;;;24.45;40.38;99432.44;4932416;29;20456;-93
2022/07/21 06:39:17;;;;;;;;;;;;;;;24.59;40.59;99429.19;4930667;29;19919;-94
2022/07/21 06:41:42;;;;;;;;;;;;;;;24.79;39.72;99427.25;4928319;29;19921;-94
2022/07/21 06:44:10;;;;;;;;;;;;;;;24.90;39.16;99431.03;4943294;29;19918;-94
2022/07/21 06:46:35;;;;;;;;;;;;;;;25.08;37.56;99425.06;4943810;28;20434;-92
2022/07/21 06:49:01;;;;;;;;;;;;;;;25.20;36.72;99424.91;4944790;28;19921;-91
2022/07/21 06:51:26;;;;;;;;;;;;;;;25.36;36.92;99425.63;4945833;28;19921;-95
2022/07/21 06:53:54;;;;;;;;;;;;;;;25.41;36.69;99424.50;4964356;28;19957;-94
2022/07/21 06:56:22;;;;;;;;;;;;;;;25.54;36.71;99430.63;4945098;28;20344;-95
2022/07/21 06:58:50;;;;;;;;;;;;;;;25.68;35.12;99427.31;4946432;28;19921;-94
2022/07/21 07:01:18;;;;;;;;;;;;;;;25.78;35.76;99430.25;4947683;28;19921;-93
2022/07/21 07:03:47;;;;;;;;;;;;;;;25.80;34.56;99422.41;4952197;28;19922;-96
2022/07/21 07:06:15;;;;;;;;;;;;;;;25.95;34.83;99428.19;4951343;28;19946;-96
2022/07/21 07:08:43;;;;;;;;;;;;;;;26.08;35.41;99424.03;4953346;28;19902;-95
2022/07/21 07:11:09;;;;;;;;;;;;;;;26.17;34.72;99421.81;4947463;28;19914;-96
2022/07/21 07:13:34;;;;;;;;;;;;;;;26.27;33.75;99414.81;4947295;28;19917;-94
2022/07/21 07:15:59;;;;;;;;;;;;;;;26.40;34.13;99420.94;4946841;28;19918;-95
2022/07/21 07:18:25;;;;;;;;;;;;;;;26.41;33.85;99417.00;4947471;28;20300;-93
2022/07/21 07:20:51;;;;;;;;;;;;;;;26.48;33.54;99416.28;4962187;28;19914;-94
2022/07/21 07:23:16;;;;;;;;;;;;;;;26.47;33.76;99420.22;4945954;28;19918;-93
2022/07/21 07:25:44;;;;;;;;;;;;;;;26.43;33.60;99409.13;4946670;28;20048;-94
2022/07/21 07:31:32;;;;;;;;;;;;;;;26.70;33.69;99412.66;4963699;28;19937;-92
2022/07/21 07:34:01;;;;;;;;;;;;;;;26.77;33.49;99411.94;4967807;28;20109;-96
2022/07/21 07:36:27;;;;;;;;;;;;;;;26.90;32.66;99396.72;4963219;28;20005;-96
2022/07/21 07:38:58;;;;;;;;;;;;;;;26.97;33.15;99394.00;4947878;28;19933;-96
2022/07/21 07:41:24;;;;;;;;;;;;;;;27.04;32.65;99404.38;4983324;28;19931;-95
2022/07/21 07:43:49;;;;;;;;;;;;;;;27.13;32.72;99396.56;4955197;28;20008;-96
2022/07/21 07:46:14;;;;;;;;;;;;;;;27.28;32.78;99399.50;4936135;29;19924;-94
2022/07/21 07:48:45;;;;;;;;;;;;;;;27.42;32.21;99405.94;4935430;29;19918;-92
2022/07/21 07:51:20;;;;;;;;;;;;;;;27.53;32.67;99394.97;4946756;28;19921;-93
2022/07/21 07:53:45;;;;;;;;;;;;;;;27.64;33.73;99397.81;4971822;28;20008;-89
2022/07/21 07:56:11;;;;;;;;;;;;;;;27.77;32.51;99401.88;4957873;28;20494;-89
2022/07/21 07:58:36;;;;;;;;;;;;;;;27.96;32.71;99389.00;4962243;28;20008;-90
2022/07/21 08:01:09;;;;;;;;;;;;;;;28.05;32.47;99389.44;4944543;29;19923;-93
2022/07/21 08:03:41;;;;;;;;;;;;;;;28.15;31.21;99388.72;4945827;28;20004;-93
2022/07/21 08:06:09;;;;;;;;;;;;;;;28.13;31.02;99384.75;4984367;28;19904;-95
2022/07/21 08:08:34;;;;;;;;;;;;;;;28.21;31.97;99387.16;4953674;29;19918;-94
2022/07/21 08:11:00;;;;;;;;;;;;;;;28.33;32.01;99383.28;4931965;29;20350;-93
2022/07/21 08:13:52;;;;;;;;;;;;;;;28.43;31.76;99384.50;4947625;29;19938;-93
2022/07/21 08:16:26;;;;;;;;;;;;;;;28.52;31.46;99387.72;4931679;28;19918;-93
2022/07/21 08:19:13;;;;;;;;;;;;;;;28.58;31.90;99379.84;4953288;29;20005;-92
2022/07/21 08:22:20;;;;;;;;;;;;;;;28.73;31.23;99373.16;4944143;28;19914;-93
2022/07/21 08:24:46;;;;;;;;;;;;;;;28.85;30.65;99372.00;4925813;29;20026;-92
2022/07/21 08:27:11;;;;;;;;;;;;;;;28.92;30.42;99369.25;4902235;29;19960;-93
2022/07/21 08:29:36;;;;;;;;;;;;;;;28.94;30.05;99366.88;4921035;29;19929;-91
2022/07/21 08:32:30;;;;;;;;;;;;;;;;;;;;;
2022/07/21 08:41:02;;;;;;;;;;;;;;;29.21;29.96;99347.91;4865338;29;20065;-92
2022/07/21 08:43:28;;;;;;;;;;;;;;;29.31;29.45;99343.56;4878669;29;19967;-92
2022/07/21 08:46:02;;;;;;;;;;;;;;;29.18;29.39;99345.16;4897587;29;19927;-92
2022/07/21 08:48:40;;;;;;;;;;;;;;;29.31;29.11;99342.78;4897926;29;19942;-92
2022/07/21 08:51:05;;;;;;;;;;;;;;;29.34;28.83;99340.00;4903148;29;19919;-92
2022/07/21 08:53:31;;;;;;;;;;;;;;;29.35;29.25;99343.59;4908273;29;20466;-95
2022/07/21 08:55:56;;;;;;;;;;;;;;;29.44;29.89;99346.75;4919421;29;19998;-92
2022/07/21 08:58:29;;;;;;;;;;;;;;;29.51;29.56;99346.75;4905433;29;19915;-91
2022/07/21 09:01:15;;;;;;;;;;;;;;;29.68;28.45;99334.03;4898618;29;19981;-91
2022/07/21 09:03:40;;;;;;;;;;;;;;;29.71;28.32;99340.81;4892650;29;19987;-94
2022/07/21 09:06:22;;;;;;;;;;;;;;;29.76;28.70;99332.06;4906754;29;19949;-92
2022/07/21 09:08:51;;;;;;;;;;;;;;;29.86;28.68;99330.47;4942401;29;19925;-94
2022/07/21 09:11:16;;;;;;;;;;;;;;;29.99;28.68;99332.41;4945608;29;20005;-93
2022/07/21 09:13:42;;;;;;;;;;;;;;;30.04;28.46;99330.41;4946930;28;19983;-92
2022/07/21 09:16:08;;;;;;;;;;;;;;;30.10;27.98;99318.50;4971952;28;19921;-92
2022/07/21 09:18:33;;;;;;;;;;;;;;;30.19;28.33;99320.84;4965412;28;19914;-92
2022/07/21 09:21:00;;;;;;;;;;;;;;;30.29;28.37;99320.03;4963968;28;19921;-92
2022/07/21 09:23:25;;;;;;;;;;;;;;;30.35;28.41;99321.19;4978236;28;19922;-92
2022/07/21 09:26:15;;;;;;;;;;;;;;;30.46;28.59;99315.56;4969691;28;19990;-95
2022/07/21 09:28:41;;;;;;;;;;;;;;;30.40;28.28;99318.00;4977559;28;19995;-92
2022/07/21 09:31:12;;;;;;;;;;;;;;;30.51;28.48;99311.59;4956008;28;19914;-94
2022/07/21 09:33:39;;;;;;;;;;;;;;;30.64;28.90;99303.59;4978091;28;19914;-88
2022/07/21 09:36:08;;;;;;;;;;;;;;;30.74;28.08;99299.94;4957774;28;19915;-92
2022/07/21 09:38:34;;;;;;;;;;;;;;;30.85;27.53;99303.44;4942600;28;19989;-89
2022/07/21 09:41:10;;;;;;;;;;;;;;;30.89;27.39;99297.88;4977349;28;19914;-91
2022/07/21 09:43:45;;;;;;;;;;;;;;;30.96;27.61;99295.84;4959091;28;19919;-93
2022/07/21 09:46:18;;;;;;;;;;;;;;;31.03;27.77;99297.78;4956556;29;19914;-93
2022/07/21 09:48:46;;;;;;;;;;;;;;;31.14;27.14;99294.91;4952319;28;19954;-92
2022/07/21 09:51:27;;;;;;;;;;;;;;;31.19;26.73;99289.72;4935751;28;19993;-91
2022/07/21 09:53:55;;;;;;;;;;;;;;;31.20;26.85;99293.28;4947303;29;19950;-94
2022/07/21 09:56:28;;;;;;;;;;;;;;;31.27;26.83;99293.19;4946875;29;19914;-93
2022/07/21 09:59:29;;;;;;;;;;;;;;;31.32;26.49;99292.00;4895329;29;19915;-94
2022/07/21 10:01:57;;;;;;;;;;;;;;;31.36;27.38;99285.19;4917869;29;19915;-93
2022/07/21 10:04:25;;;;;;;;;;;;;;;31.45;26.84;99283.94;4921284;29;19929;-92
2022/07/21 10:06:53;;;;;;;;;;;;;;;31.52;26.48;99289.44;4887743;29;20382;-94
2022/07/21 10:09:18;;;;;;;;;;;;;;;31.52;25.58;99292.22;4889065;29;20385;-90
2022/07/21 10:21:10;;;;;;;;;;;;;;;;;;;;;
2022/07/21 10:23:45;;;;;;;;;;;;;;;31.67;25.93;99271.38;4862788;29;19963;-96
2022/07/21 10:26:10;;;;;;;;;;;;;;;31.67;24.36;99268.59;4890334;29;19981;-93
2022/07/21 10:28:36;;;;;;;;;;;;;;;31.72;24.52;99270.13;4879331;29;19923;-92
2022/07/21 10:31:39;;;;;;;;;;;;;;;31.79;24.31;99273.63;4944889;29;19918;-89
2022/07/21 10:34:05;;;;;;;;;;;;;;;31.78;24.20;99274.03;4905687;29;19920;-89
2022/07/21 10:36:33;;;;;;;;;;;;;;;31.80;24.01;99268.84;4947384;29;20400;-90
2022/07/21 10:39:13;;;;;;;;;;;;;;;31.88;25.17;99272.34;4940228;29;20005;-89
2022/07/21 10:41:39;;;;;;;;;;;;;;;31.79;24.27;99261.69;4955366;28;20413;-93
2022/07/21 10:44:24;;;;;;;;;;;;;;;31.83;24.10;99259.66;4947990;28;19919;-91
2022/07/21 10:47:06;;;;;;;;;;;;;;;31.82;24.31;99258.88;4953340;29;19937;-91
2022/07/21 10:49:44;;;;;;;;;;;;;;;31.91;23.67;99261.16;4933064;29;19954;-90
2022/07/21 10:52:28;;;;;;;;;;;;;;;32.01;24.18;99265.06;4955381;29;19925;-90
2022/07/21 10:55:23;;;;;;;;;;;;;;;;;;;;;
2022/07/21 10:58:07;;;;;;;;;;;;;;;32.05;24.30;99256.66;4940437;29;19915;-91
2022/07/21 11:01:01;;;;;;;;;;;;;;;32.06;24.52;99258.22;4941562;29;20301;-92
2022/07/21 11:03:42;;;;;;;;;;;;;;;32.08;23.43;99255.81;4942682;29;19922;-92
2022/07/21 11:06:35;;;;;;;;;;;;;;;32.03;24.23;99251.50;4942180;29;19957;-91
2022/07/21 11:09:04;;;;;;;;;;;;;;;32.16;24.68;99244.16;4934011;29;19919;-94
2022/07/21 11:11:33;;;;;;;;;;;;;;;32.25;24.12;99254.00;4934417;29;19921;-91
2022/07/21 11:14:08;;;;;;;;;;;;;;;32.20;24.12;99252.47;4940606;29;19921;-94
2022/07/21 11:16:43;;;;;;;;;;;;;;;32.16;23.99;99248.94;4958970;29;20027;-94
2022/07/21 11:19:27;;;;;;;;;;;;;;;32.13;23.67;99250.56;4930065;29;20017;-93
2022/07/21 11:21:52;;;;;;;;;;;;;;;32.10;23.77;99248.59;4961301;29;19918;-94
2022/07/21 11:24:18;;;;;;;;;;;;;;;32.14;23.40;99248.56;4959746;28;20385;-92
2022/07/21 11:26:43;;;;;;;;;;;;;;;32.19;23.68;99246.13;4941507;29;19922;-91
2022/07/21 11:29:09;;;;;;;;;;;;;;;32.15;23.06;99244.59;4943779;29;20346;-95
2022/07/21 11:31:44;;;;;;;;;;;;;;;32.06;22.80;99236.72;4944233;29;20184;-93
2022/07/21 11:34:10;;;;;;;;;;;;;;;32.16;22.88;99238.56;4943870;29;19915;-93
2022/07/21 11:36:50;;;;;;;;;;;;;;;32.14;23.11;99238.19;4967708;29;19981;-94
2022/07/21 11:39:25;;;;;;;;;;;;;;;32.19;23.75;99234.19;4949631;29;19918;-91
2022/07/21 11:41:53;;;;;;;;;;;;;;;32.21;23.44;99242.91;4947106;29;19954;-90
2022/07/21 11:44:32;;;;;;;;;;;;;;;32.27;23.60;99232.88;4931017;29;19918;-95
2022/07/21 11:53:14;;;;;;;;;;;;;;;32.36;23.09;99235.91;4914430;29;19926;-94
2022/07/21 11:55:44;;;;;;;;;;;;;;;32.49;23.14;99227.75;4952580;29;19922;-96
2022/07/21 11:58:23;;;;;;;;;;;;;;;;;;;;;
2022/07/21 12:00:49;;;;;;;;;;;;;;;32.66;22.70;99228.72;4959021;29;19953;-94
2022/07/21 12:10:09;;;;;;;;;;;;;;;32.87;22.47;99221.22;4871797;29;20493;-94
2022/07/21 12:12:34;;;;;;;;;;;;;;;32.96;22.56;99219.47;4973419;28;19990;-94
2022/07/21 12:15:15;;;;;;;;;;;;;;;32.99;22.34;99221.41;4931325;29;19922;-93
2022/07/21 12:20:46;;;;;;;;;;;;;;;33.18;22.68;99217.16;4925350;29;19922;-93
2022/07/21 12:23:29;;;;;;;;;;;;;;;33.12;21.92;99207.69;4914731;29;19962;-96
2022/07/21 12:26:01;;;;;;;;;;;;;;;33.17;22.66;99207.19;4927178;29;19946;-92
2022/07/21 12:28:46;;;;;;;;;;;;;;;33.31;22.43;99208.94;4921519;29;19922;-94
2022/07/21 12:31:14;;;;;;;;;;;;;;;33.35;22.39;99200.47;4945066;29;19953;-94
2022/07/21 12:33:41;;;;;;;;;;;;;;;33.48;22.51;99201.44;4929195;29;19981;-96
2022/07/21 12:36:12;;;;;;;;;;;;;;;33.58;22.26;99197.63;4934241;28;19902;-96
2022/07/21 12:38:44;;;;;;;;;;;;;;;33.55;21.86;99189.31;4934184;29;20312;-95
2022/07/21 12:41:10;;;;;;;;;;;;;;;33.67;22.10;99187.94;4928306;29;19914;-93
2022/07/21 12:43:42;;;;;;;;;;;;;;;33.75;21.74;99189.34;4935263;29;20017;-96
2022/07/21 12:46:50;;;;;;;;;;;;;;;;;;;;;
2022/07/21 12:49:15;;;;;;;;;;;;;;;33.90;21.38;99185.03;4907829;29;20013;-96
2022/07/21 12:51:57;;;;;;;;;;;;;;;33.77;21.18;99189.72;4937618;29;19914;-95
2022/07/21 13:00:34;;;;;;;;;;;;;;;33.82;20.98;99180.81;4885524;29;19971;-95
2022/07/21 13:03:02;;;;;;;;;;;;;;;33.78;21.53;99175.28;4922823;29;19915;-93
2022/07/21 13:05:30;;;;;;;;;;;;;;;33.83;21.11;99179.59;4945285;28;19918;-94
2022/07/21 13:07:55;;;;;;;;;;;;;;;33.92;21.46;99179.03;4951270;29;19990;-92
2022/07/21 13:10:20;;;;;;;;;;;;;;;33.94;20.91;99171.78;4957941;28;19956;-93
2022/07/21 13:12:55;;;;;;;;;;;;;;;33.82;20.85;99162.03;4965876;28;19921;-94
2022/07/21 13:15:20;;;;;;;;;;;;;;;34.18;20.46;99161.28;4961695;28;19953;-93
2022/07/21 13:17:46;;;;;;;;;;;;;;;34.39;21.45;99159.22;4955773;28;19941;-92
2022/07/21 13:20:11;;;;;;;;;;;;;;;34.22;20.45;99156.41;4938658;28;19915;-90
2022/07/21 13:22:37;;;;;;;;;;;;;;;34.45;20.56;99170.66;4925586;29;19958;-94
2022/07/21 13:25:03;;;;;;;;;;;;;;;34.64;20.14;99164.22;4934385;29;20249;-92
2022/07/21 13:27:33;;;;;;;;;;;;;;;34.83;19.90;99161.75;4937278;29;19921;-94
2022/07/21 13:29:59;;;;;;;;;;;;;;;34.77;19.35;99162.28;4940940;29;19918;-92
2022/07/21 13:32:24;;;;;;;;;;;;;;;35.08;18.57;99155.50;4941805;29;19922;-93
2022/07/21 13:34:52;;;;;;;;;;;;;;;35.06;18.19;99143.97;4944772;29;19953;-95
2022/07/21 13:37:24;;;;;;;;;;;;;;;35.26;19.44;99153.03;4941618;29;19915;-93
2022/07/21 13:39:49;;;;;;;;;;;;;;;35.50;19.66;99138.75;4940670;29;19915;-93
2022/07/21 13:42:14;;;;;;;;;;;;;;;35.50;19.11;99147.94;4955658;29;19993;-91
2022/07/21 13:44:40;;;;;;;;;;;;;;;35.84;18.56;99149.38;4939365;29;19915;-93
2022/07/21 13:47:05;;;;;;;;;;;;;;;35.99;18.56;99144.13;4939556;29;19969;-95
2022/07/21 13:49:30;;;;;;;;;;;;;;;36.10;18.35;99140.97;4942783;29;19951;-93